createdAt,value
2022-12-02T00:01:28.697Z,20.40
2022-12-02T00:03:57.237Z,19.27
2022-12-02T00:06:30.697Z,18.75
2022-12-02T00:09:34.105Z,18.13
2022-12-02T00:12:14.780Z,19.15
2022-12-02T00:14:42.206Z,18.58
2022-12-02T00:17:09.399Z,17.50
2022-12-02T00:19:36.993Z,18.70
2022-12-02T00:22:04.144Z,18.80
2022-12-02T00:24:31.665Z,18.00
2022-12-02T00:26:58.859Z,17.40
2022-12-02T00:29:28.087Z,18.15
2022-12-02T00:31:56.553Z,18.58
2022-12-02T00:34:24.198Z,19.02
2022-12-02T00:36:51.308Z,19.20
2022-12-02T00:39:18.749Z,17.85
2022-12-02T00:41:45.936Z,18.70
2022-12-02T00:44:32.304Z,18.02
2022-12-02T00:46:59.514Z,18.40
2022-12-02T00:49:27.857Z,19.42
2022-12-02T00:51:55.564Z,19.15
2022-12-02T00:54:23.121Z,18.30
2022-12-02T00:56:51.173Z,18.23
2022-12-02T00:59:18.944Z,19.35
2022-12-02T01:01:47.518Z,19.25
2022-12-02T01:04:15.172Z,19.38
2022-12-02T01:06:42.584Z,17.05
2022-12-02T01:09:10.650Z,18.80
2022-12-02T01:11:37.796Z,17.83
2022-12-02T01:14:05.355Z,18.15
2022-12-02T01:16:32.576Z,18.67
2022-12-02T01:18:59.973Z,18.52
2022-12-02T01:21:27.205Z,18.33
2022-12-02T01:23:54.924Z,19.27
2022-12-02T01:26:22.140Z,18.70
2022-12-02T01:28:49.755Z,18.38
2022-12-02T01:31:17.235Z,18.60
2022-12-02T01:33:44.734Z,19.17
2022-12-02T01:36:11.898Z,18.90
2022-12-02T01:38:39.448Z,18.55
2022-12-02T01:41:07.355Z,20.45
2022-12-02T01:43:35.146Z,18.83
2022-12-02T01:46:02.687Z,19.83
2022-12-02T01:48:30.594Z,19.35
2022-12-02T01:50:58.091Z,18.55
2022-12-02T01:53:26.206Z,18.85
2022-12-02T01:55:53.808Z,18.65
2022-12-02T01:58:25.440Z,20.20
2022-12-02T02:00:54.708Z,18.48
2022-12-02T02:03:22.769Z,19.00
2022-12-02T02:05:50.857Z,18.42
2022-12-02T02:08:18.674Z,19.67
2022-12-02T02:10:46.884Z,18.10
2022-12-02T02:13:17.265Z,17.75
2022-12-02T02:15:45.437Z,18.47
2022-12-02T02:18:13.408Z,17.33
2022-12-02T02:20:41.465Z,17.15
2022-12-02T02:23:09.332Z,17.15
2022-12-02T02:31:02.350Z,14.50
2022-12-02T02:33:37.745Z,16.25
2022-12-02T02:36:05.615Z,16.45
2022-12-02T02:38:34.216Z,16.50
2022-12-02T02:41:03.260Z,17.33
2022-12-02T02:43:31.787Z,17.60
2022-12-02T03:10:25.999Z,19.10
2022-12-02T03:15:39.018Z,19.48
2022-12-02T03:23:00.888Z,19.75
2022-12-02T03:25:33.026Z,19.45
2022-12-02T03:41:48.527Z,18.23
2022-12-02T03:44:16.515Z,19.05
2022-12-02T03:46:44.727Z,17.60
2022-12-02T03:49:12.775Z,18.20
2022-12-02T03:51:41.355Z,18.45
2022-12-02T03:54:08.550Z,19.42
2022-12-02T03:56:41.181Z,18.55
2022-12-02T03:59:10.045Z,17.90
2022-12-02T04:01:37.555Z,18.13
2022-12-02T04:04:04.887Z,18.63
2022-12-02T04:06:32.330Z,17.30
2022-12-02T04:08:59.886Z,19.13
2022-12-02T04:11:27.400Z,18.35
2022-12-02T04:13:54.537Z,19.33
2022-12-02T04:16:22.023Z,19.88
2022-12-02T04:18:49.251Z,19.42
2022-12-02T04:21:16.825Z,18.85
2022-12-02T04:23:44.029Z,19.48
2022-12-02T04:26:11.391Z,19.60
2022-12-02T04:28:38.513Z,20.05
2022-12-02T04:31:06.207Z,19.63
2022-12-02T04:33:33.404Z,19.42
2022-12-02T04:36:00.981Z,19.95
2022-12-02T04:38:28.301Z,18.65
2022-12-02T04:40:55.830Z,19.92
2022-12-02T04:43:22.971Z,19.30
2022-12-02T04:45:50.494Z,18.58
2022-12-02T04:48:17.707Z,19.80
2022-12-02T04:50:45.137Z,17.70
2022-12-02T05:57:03.815Z,21.30
2022-12-02T05:59:31.415Z,21.38
2022-12-02T06:01:59.479Z,23.38
2022-12-02T06:04:33.347Z,22.30
2022-12-02T06:07:02.572Z,22.35
2022-12-02T06:09:33.400Z,22.90
2022-12-02T06:12:03.311Z,21.90
2022-12-02T06:14:35.788Z,23.77
2022-12-02T06:31:20.069Z,19.27
2022-12-02T06:33:50.733Z,19.83
2022-12-02T06:36:25.371Z,18.45
2022-12-02T06:38:56.985Z,20.08
2022-12-02T06:41:24.292Z,19.60
2022-12-02T06:44:10.485Z,19.98
2022-12-02T06:46:37.933Z,20.80
2022-12-02T06:49:17.132Z,20.95
2022-12-02T06:51:44.619Z,19.55
2022-12-02T06:54:31.062Z,19.33
2022-12-02T06:57:01.310Z,19.77
2022-12-02T06:59:28.562Z,21.85
2022-12-02T07:01:58.249Z,20.55
2022-12-02T07:04:34.963Z,20.95
2022-12-02T07:07:21.027Z,20.23
2022-12-02T07:09:49.796Z,21.13
2022-12-02T07:12:21.727Z,20.00
2022-12-02T07:14:53.882Z,21.08
2022-12-02T07:17:29.906Z,20.05
2022-12-02T07:19:56.964Z,20.77
2022-12-02T07:22:30.589Z,21.33
2022-12-02T07:25:05.521Z,21.77
2022-12-02T07:42:35.388Z,20.92
2022-12-02T07:45:02.954Z,23.80
2022-12-02T07:47:32.159Z,24.55
2022-12-02T07:49:59.669Z,22.98
2022-12-02T07:52:26.861Z,21.67
2022-12-02T07:54:54.830Z,20.25
2022-12-02T07:57:22.658Z,19.77
2022-12-02T07:59:50.089Z,18.63
2022-12-02T08:02:18.076Z,17.83
2022-12-02T08:04:45.832Z,18.63
2022-12-02T08:07:13.228Z,19.30
2022-12-02T08:09:40.683Z,17.83
2022-12-02T08:12:08.188Z,18.00
2022-12-02T08:14:35.763Z,16.85
2022-12-02T08:17:03.330Z,14.15
2022-12-02T08:19:30.939Z,16.02
2022-12-02T08:21:58.208Z,16.15
2022-12-02T08:24:25.723Z,15.60
2022-12-02T08:26:53.143Z,15.57
2022-12-02T08:29:20.726Z,13.68
2022-12-02T08:31:48.002Z,14.10
2022-12-02T08:34:15.803Z,15.55
2022-12-02T08:36:43.127Z,15.43
2022-12-02T08:39:11.019Z,14.77
2022-12-02T08:41:38.964Z,14.88
2022-12-02T08:44:07.073Z,16.38
2022-12-02T08:46:34.831Z,16.90
2022-12-02T08:49:02.940Z,20.02
2022-12-02T08:51:30.325Z,20.88
2022-12-02T08:53:57.884Z,18.35
2022-12-02T08:56:25.110Z,20.50
2022-12-02T08:58:52.540Z,20.13
2022-12-02T09:01:19.876Z,20.02
2022-12-02T09:03:47.576Z,23.90
2022-12-02T09:06:14.911Z,24.42
2022-12-02T09:08:43.465Z,22.48
2022-12-02T09:11:14.986Z,23.05
2022-12-02T09:13:42.490Z,26.50
2022-12-02T09:16:09.819Z,24.20
2022-12-02T09:18:37.460Z,25.75
2022-12-02T09:21:04.765Z,27.00
2022-12-02T09:23:32.408Z,26.23
2022-12-02T09:25:59.692Z,26.38
2022-12-02T09:28:27.126Z,21.75
2022-12-02T09:30:54.371Z,20.27
2022-12-02T09:33:22.065Z,18.83
2022-12-02T09:35:49.349Z,16.25
2022-12-02T09:38:16.990Z,17.05
2022-12-02T09:40:44.455Z,18.08
2022-12-02T09:43:12.300Z,17.77
2022-12-02T09:45:41.259Z,17.77
2022-12-02T09:48:11.175Z,18.23
2022-12-02T09:50:39.974Z,17.88
2022-12-02T09:53:08.176Z,17.52
2022-12-02T09:55:37.157Z,16.55
2022-12-02T09:58:31.390Z,17.65
2022-12-02T10:00:58.507Z,17.73
2022-12-02T10:03:28.412Z,17.63
2022-12-02T10:05:56.418Z,16.85
2022-12-02T10:08:28.403Z,19.13
2022-12-02T10:10:59.584Z,17.33
2022-12-02T10:13:27.854Z,17.67
2022-12-02T10:15:55.276Z,17.10
2022-12-02T10:18:27.233Z,17.40
2022-12-02T10:20:54.727Z,15.70
2022-12-02T10:23:30.164Z,15.77
2022-12-02T10:26:13.397Z,16.80
2022-12-02T10:28:42.437Z,16.10
2022-12-02T10:31:12.872Z,15.82
2022-12-02T10:33:51.713Z,15.60
2022-12-02T10:36:32.579Z,16.35
2022-12-02T10:39:22.023Z,14.35
2022-12-02T10:42:10.542Z,13.98
2022-12-02T10:44:43.573Z,14.25
2022-12-02T10:47:26.555Z,13.95
2022-12-02T10:49:59.685Z,14.57
2022-12-02T10:52:28.600Z,12.60
2022-12-02T10:54:58.941Z,14.52
2022-12-02T10:57:30.432Z,13.10
2022-12-02T11:00:01.707Z,13.50
2022-12-02T11:02:37.989Z,12.70
2022-12-02T11:05:27.019Z,11.52
2022-12-02T11:07:57.256Z,10.80
2022-12-02T11:10:37.549Z,11.10
2022-12-02T11:13:07.602Z,11.38
2022-12-02T11:15:43.231Z,11.50
2022-12-02T11:18:39.041Z,11.90
2022-12-02T11:21:06.579Z,10.45
2022-12-02T11:23:34.940Z,11.00
2022-12-02T11:26:12.754Z,12.02
2022-12-02T11:29:04.089Z,11.23
2022-12-02T11:31:31.725Z,11.02
2022-12-02T11:34:06.438Z,11.68
2022-12-02T11:36:35.856Z,10.90
2022-12-02T11:39:09.810Z,10.82
2022-12-02T11:41:49.344Z,9.52
2022-12-02T11:44:29.765Z,11.07
2022-12-02T11:46:59.591Z,11.07
2022-12-02T11:49:42.680Z,11.45
2022-12-02T11:52:10.062Z,12.25
2022-12-02T11:54:44.556Z,12.35
2022-12-02T11:57:23.494Z,12.70
2022-12-02T11:59:51.796Z,12.45
2022-12-02T12:02:22.253Z,11.30
2022-12-02T12:05:07.769Z,11.82
2022-12-02T12:07:48.820Z,12.68
2022-12-02T12:10:36.602Z,12.48
2022-12-02T12:13:16.317Z,12.68
2022-12-02T12:15:58.255Z,12.93
2022-12-02T12:18:46.354Z,12.32
2022-12-02T12:21:32.440Z,12.43
2022-12-02T12:24:18.588Z,12.23
2022-12-02T12:26:49.084Z,13.23
2022-12-02T12:29:17.872Z,12.90
2022-12-02T12:31:45.673Z,12.50
2022-12-02T12:34:17.745Z,12.30
2022-12-02T12:36:46.065Z,12.85
2022-12-02T12:39:15.005Z,13.02
2022-12-02T12:42:00.246Z,12.80
2022-12-02T12:44:31.858Z,11.18
2022-12-02T12:47:02.769Z,12.38
2022-12-02T12:49:31.116Z,12.27
2022-12-02T12:51:58.662Z,12.70
2022-12-02T12:54:26.395Z,12.75
2022-12-02T12:56:53.683Z,13.63
2022-12-02T12:59:21.207Z,12.82
2022-12-02T13:01:48.918Z,12.57
2022-12-02T13:04:17.048Z,12.68
2022-12-02T13:06:46.903Z,13.70
2022-12-02T13:09:16.041Z,13.88
2022-12-02T13:11:43.699Z,13.30
2022-12-02T13:14:11.414Z,12.93
2022-12-02T13:16:38.713Z,13.80
2022-12-02T13:19:06.452Z,13.35
2022-12-02T13:21:33.699Z,14.77
2022-12-02T13:24:03.465Z,13.38
2022-12-02T13:26:30.651Z,13.30
2022-12-02T13:28:58.261Z,13.77
2022-12-02T13:31:25.687Z,14.05
2022-12-02T13:33:53.151Z,14.60
2022-12-02T13:36:20.542Z,13.77
2022-12-02T13:38:48.236Z,13.80
2022-12-02T13:41:15.531Z,14.88
2022-12-02T13:43:43.213Z,15.32
2022-12-02T13:46:10.658Z,16.23
2022-12-02T13:48:38.258Z,16.02
2022-12-02T13:51:05.582Z,15.35
2022-12-02T13:53:33.415Z,15.60
2022-12-02T13:56:00.647Z,14.77
2022-12-02T13:58:28.351Z,16.40
2022-12-02T14:00:55.588Z,16.40
2022-12-02T14:03:23.108Z,16.10
2022-12-02T14:05:50.313Z,16.45
2022-12-02T14:08:17.948Z,17.50
2022-12-02T14:10:45.206Z,15.93
2022-12-02T14:13:18.289Z,17.75
2022-12-02T14:15:48.416Z,17.25
2022-12-02T14:18:16.242Z,18.27
2022-12-02T14:20:43.553Z,19.20
2022-12-02T14:23:14.302Z,18.38
2022-12-02T14:25:41.578Z,19.05
2022-12-02T14:28:09.125Z,20.17
2022-12-02T14:30:36.319Z,20.33
2022-12-02T14:33:03.947Z,19.92
2022-12-02T14:35:31.406Z,20.05
2022-12-02T14:37:59.037Z,20.58
2022-12-02T14:40:28.546Z,19.52
2022-12-02T14:45:23.782Z,19.48
2022-12-02T14:47:51.324Z,20.88
2022-12-02T14:50:19.081Z,19.42
2022-12-02T14:52:46.699Z,20.67
2022-12-02T14:55:13.915Z,19.27
2022-12-02T14:57:41.961Z,19.75
2022-12-02T15:00:11.889Z,19.45
2022-12-02T15:02:39.796Z,19.40
2022-12-02T15:05:12.584Z,19.05
2022-12-02T15:07:41.941Z,19.77
2022-12-02T15:10:10.196Z,19.42
2022-12-02T15:12:37.993Z,18.20
2022-12-02T15:15:36.670Z,19.90
2022-12-02T15:17:56.614Z,18.27
2022-12-02T15:20:24.049Z,18.05
2022-12-02T15:22:51.721Z,17.92
2022-12-02T15:25:19.019Z,17.55
2022-12-02T15:27:49.466Z,18.33
2022-12-02T15:30:22.013Z,17.08
2022-12-02T15:32:49.786Z,16.58
2022-12-02T15:35:17.213Z,17.13
2022-12-02T15:37:45.190Z,14.88
2022-12-02T15:40:15.411Z,15.82
2022-12-02T15:42:43.279Z,17.17
2022-12-02T15:45:10.645Z,17.05
2022-12-02T15:47:38.418Z,17.08
2022-12-02T15:50:06.396Z,17.33
2022-12-02T15:52:36.398Z,16.83
2022-12-02T15:55:04.161Z,18.55
2022-12-02T15:57:34.450Z,18.75
2022-12-02T16:00:02.366Z,19.20
2022-12-02T16:02:33.836Z,18.85
2022-12-02T16:05:01.141Z,17.60
2022-12-02T16:07:29.005Z,18.33
2022-12-02T16:09:56.230Z,17.92
2022-12-02T16:12:23.734Z,18.23
2022-12-02T16:14:55.326Z,19.45
2022-12-02T16:17:23.415Z,18.45
2022-12-02T16:19:51.018Z,19.08
2022-12-02T16:22:18.906Z,17.63
2022-12-02T16:24:46.219Z,18.77
2022-12-02T16:27:14.187Z,18.15
2022-12-02T16:29:41.501Z,18.13
2022-12-02T16:32:09.424Z,18.23
2022-12-02T16:34:36.819Z,20.08
2022-12-02T16:37:04.700Z,18.98
2022-12-02T16:39:31.988Z,19.95
2022-12-02T16:41:59.780Z,20.55
2022-12-02T16:44:27.150Z,21.15
2022-12-02T16:46:54.751Z,22.67
2022-12-02T16:49:22.061Z,20.27
2022-12-02T16:51:49.896Z,20.67
2022-12-02T16:54:17.305Z,19.77
2022-12-02T16:56:45.177Z,18.77
2022-12-02T16:59:12.454Z,19.33
2022-12-02T17:01:40.103Z,17.83
2022-12-02T17:04:07.929Z,19.02
2022-12-02T17:06:36.001Z,19.45
2022-12-02T17:09:03.431Z,19.08
2022-12-02T17:11:31.086Z,18.20
2022-12-02T17:13:58.443Z,19.85
2022-12-02T17:16:26.038Z,20.05
2022-12-02T17:18:54.739Z,21.35
2022-12-02T17:21:22.285Z,21.73
2022-12-02T17:23:49.585Z,22.67
2022-12-02T17:26:17.480Z,22.55
2022-12-02T17:28:44.822Z,21.65
2022-12-02T17:31:12.587Z,21.13
2022-12-02T17:33:40.121Z,23.27
2022-12-02T17:36:08.422Z,21.88
2022-12-02T17:38:56.181Z,22.67
2022-12-02T17:41:36.267Z,22.23
2022-12-02T17:44:05.817Z,24.48
2022-12-02T17:46:44.879Z,24.50
2022-12-02T17:49:54.648Z,25.98
2022-12-02T17:53:18.987Z,25.42
2022-12-02T17:55:51.979Z,26.02
2022-12-02T17:58:34.572Z,27.75
2022-12-02T18:01:18.148Z,27.48
2022-12-02T18:04:50.769Z,26.27
2022-12-02T18:07:54.944Z,26.98
2022-12-02T18:10:49.815Z,26.52
2022-12-02T18:14:02.198Z,25.67
2022-12-02T18:16:59.655Z,25.85
2022-12-02T18:19:48.077Z,24.58
2022-12-02T18:22:56.936Z,25.63
2022-12-02T18:25:33.283Z,23.60
2022-12-02T18:28:06.420Z,23.70
2022-12-02T18:31:05.993Z,24.55
2022-12-02T18:33:43.872Z,24.20
2022-12-02T18:36:34.967Z,25.85
2022-12-02T18:39:08.971Z,24.88
2022-12-02T18:41:41.818Z,26.27
2022-12-02T18:44:14.394Z,26.27
2022-12-02T18:47:11.617Z,26.00
2022-12-02T18:49:55.045Z,25.75
2022-12-02T18:52:32.097Z,26.13
2022-12-02T18:55:03.991Z,28.05
2022-12-02T18:57:35.831Z,26.38
2022-12-02T19:00:09.650Z,26.48
2022-12-02T19:02:43.677Z,28.48
2022-12-02T19:05:19.265Z,28.15
2022-12-02T19:07:58.307Z,26.77
2022-12-02T19:10:35.835Z,28.42
2022-12-02T19:13:06.460Z,28.52
2022-12-02T19:15:38.878Z,30.00
2022-12-02T19:18:35.548Z,39.25
2022-12-02T19:21:13.185Z,27.58
2022-12-02T19:23:45.567Z,27.77
2022-12-02T19:26:18.090Z,24.83
2022-12-02T19:28:59.801Z,26.98
2022-12-02T19:31:32.998Z,26.20
2022-12-02T19:34:04.984Z,25.10
2022-12-02T19:36:37.478Z,25.65
2022-12-02T19:39:04.797Z,25.60
2022-12-02T19:41:32.350Z,25.80
2022-12-02T19:44:03.678Z,25.38
2022-12-02T19:46:32.065Z,25.10
2022-12-02T19:49:00.033Z,24.58
2022-12-02T19:51:27.950Z,25.10
2022-12-02T19:53:55.188Z,25.88
2022-12-02T19:56:22.881Z,25.02
2022-12-02T19:58:50.122Z,26.45
2022-12-02T20:01:17.570Z,25.60
2022-12-02T20:03:44.868Z,27.25
2022-12-02T20:06:13.673Z,26.67
2022-12-02T20:08:40.904Z,25.48
2022-12-02T20:11:08.842Z,25.38
2022-12-02T20:13:36.073Z,25.00
2022-12-02T20:16:03.680Z,26.42
2022-12-02T20:18:32.280Z,25.95
2022-12-02T20:21:00.357Z,24.75
2022-12-02T20:23:28.998Z,27.00
2022-12-02T20:25:57.271Z,27.52
2022-12-02T20:28:25.306Z,27.45
2022-12-02T20:30:53.115Z,25.98
2022-12-02T20:33:20.535Z,26.00
2022-12-02T20:35:48.165Z,26.40
2022-12-02T20:38:15.534Z,25.38
2022-12-02T20:40:43.206Z,26.58
2022-12-02T20:43:11.288Z,27.40
2022-12-02T20:45:41.349Z,26.05
2022-12-02T20:48:08.777Z,26.67
2022-12-02T20:50:36.791Z,26.08
2022-12-02T20:53:04.126Z,26.38
2022-12-02T20:55:31.778Z,25.55
2022-12-02T20:57:59.104Z,23.95
2022-12-02T21:00:26.939Z,25.10
2022-12-02T21:02:54.532Z,25.52
2022-12-02T21:05:24.432Z,25.88
2022-12-02T21:07:52.077Z,26.38
2022-12-02T21:10:19.786Z,25.13
2022-12-02T21:12:47.361Z,25.13
2022-12-02T21:15:17.400Z,24.98
2022-12-02T21:17:44.875Z,26.40
2022-12-02T21:20:17.823Z,24.63
2022-12-02T21:22:46.722Z,24.20
2022-12-02T21:25:14.661Z,24.02
2022-12-02T21:27:42.946Z,25.08
2022-12-02T21:30:11.425Z,23.95
2022-12-02T21:32:39.832Z,23.25
2022-12-02T21:35:09.901Z,23.50
2022-12-02T21:37:38.480Z,24.23
2022-12-02T21:40:07.219Z,25.77
2022-12-02T21:42:34.991Z,26.45
2022-12-02T21:45:08.230Z,25.05
2022-12-02T21:47:40.315Z,24.83
2022-12-02T21:50:10.951Z,25.63
2022-12-02T21:52:38.551Z,23.25
2022-12-02T21:55:06.709Z,22.80
2022-12-02T21:57:34.025Z,23.95
2022-12-02T22:00:01.764Z,25.40
2022-12-02T22:02:29.679Z,24.45
2022-12-02T22:04:57.482Z,25.52
2022-12-02T22:07:43.869Z,24.85
2022-12-02T22:10:14.603Z,25.48
2022-12-02T22:12:41.937Z,25.45
2022-12-02T22:15:10.419Z,23.90
2022-12-02T22:17:37.973Z,24.85
2022-12-02T22:20:07.061Z,24.90
2022-12-02T22:22:34.530Z,25.52
2022-12-02T22:25:02.286Z,25.05
2022-12-02T22:27:29.691Z,24.83
2022-12-02T22:29:58.676Z,23.73
2022-12-02T22:32:25.974Z,24.75
2022-12-02T22:34:53.852Z,24.40
2022-12-02T22:37:21.236Z,25.15
2022-12-02T22:39:48.789Z,23.50
2022-12-02T22:42:15.963Z,24.48
2022-12-02T22:44:43.491Z,23.77
2022-12-02T22:47:10.722Z,24.33
2022-12-02T22:49:38.365Z,23.67
2022-12-02T22:52:05.708Z,25.73
2022-12-02T22:54:33.303Z,22.70
2022-12-02T22:57:00.767Z,23.75
2022-12-02T22:59:28.427Z,23.85
2022-12-02T23:01:56.429Z,24.33
2022-12-02T23:04:24.086Z,23.95
2022-12-02T23:06:51.587Z,23.55
2022-12-02T23:09:19.235Z,24.30
2022-12-02T23:11:46.550Z,24.13
2022-12-02T23:14:14.133Z,26.30
2022-12-02T23:16:41.472Z,25.25
2022-12-02T23:19:08.975Z,24.33
2022-12-02T23:21:36.261Z,23.90
2022-12-02T23:24:04.129Z,23.85
2022-12-02T23:26:31.502Z,23.58
2022-12-02T23:28:59.223Z,24.27
2022-12-02T23:31:26.636Z,24.77
2022-12-02T23:33:54.382Z,27.00
2022-12-02T23:36:21.834Z,24.95
2022-12-02T23:38:49.655Z,25.73
2022-12-02T23:41:17.024Z,24.50
2022-12-02T23:43:44.607Z,25.77
2022-12-02T23:46:11.996Z,23.77
2022-12-02T23:48:39.580Z,25.17
2022-12-02T23:51:06.851Z,23.55
2022-12-02T23:53:34.377Z,25.75
2022-12-02T23:56:01.711Z,24.48
2022-12-02T23:58:29.338Z,24.73
